Terminal Aerodrome Forecast
Issued by NWS

Home | Current Version | Previous Version | Text Only | Print | Product List | Glossary Off
Versions: 1 2 3 4 5 6 7 8 9 10 11 12 13 14 15 16 17

550
FTUS43 KUNR 162320
TAFGCC
TAF
KGCC 162320Z 1700/1724 34014KT P6SM BKN028
     FM170200 17005KT P6SM FEW120
     FM171500 18014KT P6SM SCT200=

USA.gov is the U.S. government's official web portal to all federal, state and local government web resources and services.